sensor_id;sensor_type;location;lat;lon;timestamp;P1;durP1;ratioP1;P2;durP2;ratioP2
8319;SDS011;4197;42.130;24.746;2024-02-15T00:02:00;9.77;;;6.00;;
8319;SDS011;4197;42.130;24.746;2024-02-15T00:04:28;8.47;;;7.20;;
8319;SDS011;4197;42.130;24.746;2024-02-15T00:06:56;6.83;;;6.07;;
8319;SDS011;4197;42.130;24.746;2024-02-15T00:09:26;7.80;;;5.70;;
8319;SDS011;4197;42.130;24.746;2024-02-15T00:11:55;6.93;;;5.60;;
8319;SDS011;4197;42.130;24.746;2024-02-15T00:14:26;6.30;;;5.43;;
8319;SDS011;4197;42.130;24.746;2024-02-15T00:16:55;7.20;;;5.90;;
8319;SDS011;4197;42.130;24.746;2024-02-15T00:19:25;7.20;;;5.63;;
8319;SDS011;4197;42.130;24.746;2024-02-15T00:21:56;7.37;;;5.50;;
8319;SDS011;4197;42.130;24.746;2024-02-15T00:24:25;6.50;;;5.80;;
8319;SDS011;4197;42.130;24.746;2024-02-15T00:26:53;9.13;;;6.03;;
8319;SDS011;4197;42.130;24.746;2024-02-15T00:29:22;6.30;;;5.70;;
8319;SDS011;4197;42.130;24.746;2024-02-15T00:31:51;6.07;;;5.43;;
8319;SDS011;4197;42.130;24.746;2024-02-15T00:34:20;6.87;;;5.70;;
8319;SDS011;4197;42.130;24.746;2024-02-15T00:36:50;6.30;;;5.70;;
8319;SDS011;4197;42.130;24.746;2024-02-15T00:39:19;7.33;;;5.87;;
8319;SDS011;4197;42.130;24.746;2024-02-15T00:41:47;7.53;;;5.63;;
8319;SDS011;4197;42.130;24.746;2024-02-15T00:44:16;8.40;;;5.57;;
8319;SDS011;4197;42.130;24.746;2024-02-15T00:46:45;8.80;;;5.33;;
8319;SDS011;4197;42.130;24.746;2024-02-15T00:49:14;7.93;;;5.57;;
8319;SDS011;4197;42.130;24.746;2024-02-15T00:51:43;6.57;;;5.27;;
8319;SDS011;4197;42.130;24.746;2024-02-15T00:54:12;9.40;;;5.90;;
8319;SDS011;4197;42.130;24.746;2024-02-15T00:56:41;6.33;;;5.40;;
8319;SDS011;4197;42.130;24.746;2024-02-15T00:59:10;7.70;;;5.67;;
8319;SDS011;4197;42.130;24.746;2024-02-15T01:01:38;6.83;;;4.93;;
8319;SDS011;4197;42.130;24.746;2024-02-15T01:04:07;7.00;;;5.40;;
8319;SDS011;4197;42.130;24.746;2024-02-15T01:06:36;6.07;;;5.43;;
8319;SDS011;4197;42.130;24.746;2024-02-15T01:09:04;7.87;;;5.73;;
8319;SDS011;4197;42.130;24.746;2024-02-15T01:11:36;7.87;;;5.70;;
8319;SDS011;4197;42.130;24.746;2024-02-15T01:14:05;6.53;;;5.50;;
8319;SDS011;4197;42.130;24.746;2024-02-15T01:16:37;7.43;;;5.23;;
8319;SDS011;4197;42.130;24.746;2024-02-15T01:19:05;7.00;;;5.33;;
8319;SDS011;4197;42.130;24.746;2024-02-15T01:21:34;7.40;;;5.43;;
8319;SDS011;4197;42.130;24.746;2024-02-15T01:24:03;6.97;;;5.27;;
8319;SDS011;4197;42.130;24.746;2024-02-15T01:26:33;9.20;;;5.67;;
8319;SDS011;4197;42.130;24.746;2024-02-15T01:29:03;10.40;;;5.40;;
8319;SDS011;4197;42.130;24.746;2024-02-15T01:31:31;8.37;;;5.67;;
8319;SDS011;4197;42.130;24.746;2024-02-15T01:34:00;6.97;;;5.80;;
8319;SDS011;4197;42.130;24.746;2024-02-15T01:36:29;6.10;;;5.10;;
8319;SDS011;4197;42.130;24.746;2024-02-15T01:38:58;7.03;;;6.00;;
8319;SDS011;4197;42.130;24.746;2024-02-15T01:41:26;6.63;;;5.43;;
8319;SDS011;4197;42.130;24.746;2024-02-15T01:43:54;8.17;;;6.23;;
8319;SDS011;4197;42.130;24.746;2024-02-15T01:46:23;7.33;;;5.50;;
8319;SDS011;4197;42.130;24.746;2024-02-15T01:48:52;7.63;;;5.43;;
8319;SDS011;4197;42.130;24.746;2024-02-15T01:51:23;9.00;;;6.10;;
8319;SDS011;4197;42.130;24.746;2024-02-15T01:53:54;8.27;;;5.73;;
8319;SDS011;4197;42.130;24.746;2024-02-15T01:56:23;7.47;;;5.53;;
8319;SDS011;4197;42.130;24.746;2024-02-15T01:58:54;7.43;;;5.93;;
8319;SDS011;4197;42.130;24.746;2024-02-15T02:01:23;6.97;;;5.50;;
8319;SDS011;4197;42.130;24.746;2024-02-15T02:03:52;7.07;;;6.13;;
8319;SDS011;4197;42.130;24.746;2024-02-15T02:06:21;10.30;;;5.33;;
8319;SDS011;4197;42.130;24.746;2024-02-15T02:08:50;7.90;;;5.20;;
8319;SDS011;4197;42.130;24.746;2024-02-15T02:11:19;7.13;;;5.80;;
8319;SDS011;4197;42.130;24.746;2024-02-15T02:13:48;7.53;;;5.80;;
8319;SDS011;4197;42.130;24.746;2024-02-15T02:16:27;7.97;;;5.97;;
8319;SDS011;4197;42.130;24.746;2024-02-15T02:18:56;8.60;;;5.90;;
8319;SDS011;4197;42.130;24.746;2024-02-15T02:21:25;6.43;;;5.83;;
8319;SDS011;4197;42.130;24.746;2024-02-15T02:23:55;8.33;;;6.17;;
8319;SDS011;4197;42.130;24.746;2024-02-15T02:26:26;8.97;;;6.23;;
8319;SDS011;4197;42.130;24.746;2024-02-15T02:28:54;7.40;;;5.40;;
8319;SDS011;4197;42.130;24.746;2024-02-15T02:31:22;8.93;;;6.33;;
8319;SDS011;4197;42.130;24.746;2024-02-15T02:33:51;8.10;;;5.83;;
8319;SDS011;4197;42.130;24.746;2024-02-15T02:36:21;7.23;;;5.97;;
8319;SDS011;4197;42.130;24.746;2024-02-15T02:38:53;7.33;;;6.33;;
8319;SDS011;4197;42.130;24.746;2024-02-15T02:41:21;7.40;;;5.70;;
8319;SDS011;4197;42.130;24.746;2024-02-15T02:43:51;6.57;;;5.63;;
8319;SDS011;4197;42.130;24.746;2024-02-15T02:46:20;7.17;;;5.47;;
8319;SDS011;4197;42.130;24.746;2024-02-15T02:48:48;8.20;;;5.80;;
8319;SDS011;4197;42.130;24.746;2024-02-15T02:51:18;6.40;;;5.60;;
8319;SDS011;4197;42.130;24.746;2024-02-15T02:53:46;7.80;;;5.97;;
8319;SDS011;4197;42.130;24.746;2024-02-15T02:56:15;6.57;;;5.70;;
8319;SDS011;4197;42.130;24.746;2024-02-15T02:58:45;6.37;;;5.67;;
8319;SDS011;4197;42.130;24.746;2024-02-15T03:01:14;7.77;;;5.53;;
8319;SDS011;4197;42.130;24.746;2024-02-15T03:03:44;8.90;;;6.40;;
8319;SDS011;4197;42.130;24.746;2024-02-15T03:06:14;6.17;;;5.40;;
8319;SDS011;4197;42.130;24.746;2024-02-15T03:08:42;7.73;;;6.43;;
8319;SDS011;4197;42.130;24.746;2024-02-15T03:11:11;7.37;;;6.10;;
8319;SDS011;4197;42.130;24.746;2024-02-15T03:13:40;7.93;;;5.90;;
8319;SDS011;4197;42.130;24.746;2024-02-15T03:16:10;9.37;;;5.90;;
8319;SDS011;4197;42.130;24.746;2024-02-15T03:18:41;8.10;;;5.50;;
8319;SDS011;4197;42.130;24.746;2024-02-15T03:21:10;8.20;;;6.03;;
8319;SDS011;4197;42.130;24.746;2024-02-15T03:23:39;7.53;;;5.67;;
8319;SDS011;4197;42.130;24.746;2024-02-15T03:26:07;6.47;;;5.53;;
8319;SDS011;4197;42.130;24.746;2024-02-15T03:28:36;7.77;;;6.27;;
8319;SDS011;4197;42.130;24.746;2024-02-15T03:31:06;8.27;;;6.00;;
8319;SDS011;4197;42.130;24.746;2024-02-15T03:33:35;8.13;;;6.10;;
8319;SDS011;4197;42.130;24.746;2024-02-15T03:36:06;7.30;;;5.43;;
8319;SDS011;4197;42.130;24.746;2024-02-15T03:38:36;9.47;;;6.10;;
8319;SDS011;4197;42.130;24.746;2024-02-15T03:41:05;10.77;;;6.27;;
8319;SDS011;4197;42.130;24.746;2024-02-15T03:43:33;7.80;;;5.73;;
8319;SDS011;4197;42.130;24.746;2024-02-15T03:46:02;11.27;;;5.73;;
8319;SDS011;4197;42.130;24.746;2024-02-15T03:48:30;9.80;;;6.27;;
8319;SDS011;4197;42.130;24.746;2024-02-15T03:50:59;9.77;;;6.30;;
8319;SDS011;4197;42.130;24.746;2024-02-15T03:53:31;7.83;;;5.90;;
8319;SDS011;4197;42.130;24.746;2024-02-15T03:56:01;10.40;;;6.33;;
8319;SDS011;4197;42.130;24.746;2024-02-15T03:58:29;11.37;;;7.50;;
8319;SDS011;4197;42.130;24.746;2024-02-15T04:00:59;8.33;;;6.47;;
8319;SDS011;4197;42.130;24.746;2024-02-15T04:03:28;11.43;;;7.50;;
8319;SDS011;4197;42.130;24.746;2024-02-15T04:05:59;9.63;;;6.77;;
8319;SDS011;4197;42.130;24.746;2024-02-15T04:08:28;9.13;;;6.50;;
8319;SDS011;4197;42.130;24.746;2024-02-15T04:10:57;9.23;;;6.03;;
8319;SDS011;4197;42.130;24.746;2024-02-15T04:13:26;6.63;;;5.57;;
8319;SDS011;4197;42.130;24.746;2024-02-15T04:15:54;8.63;;;6.23;;
8319;SDS011;4197;42.130;24.746;2024-02-15T04:18:23;11.93;;;7.73;;
8319;SDS011;4197;42.130;24.746;2024-02-15T04:20:51;10.93;;;6.40;;
8319;SDS011;4197;42.130;24.746;2024-02-15T04:23:20;8.00;;;6.47;;
8319;SDS011;4197;42.130;24.746;2024-02-15T04:25:48;7.27;;;6.27;;
8319;SDS011;4197;42.130;24.746;2024-02-15T04:28:20;8.43;;;6.60;;
8319;SDS011;4197;42.130;24.746;2024-02-15T04:30:48;11.87;;;8.00;;
8319;SDS011;4197;42.130;24.746;2024-02-15T04:33:17;7.13;;;5.77;;
8319;SDS011;4197;42.130;24.746;2024-02-15T04:35:45;9.27;;;6.13;;
8319;SDS011;4197;42.130;24.746;2024-02-15T04:38:15;11.37;;;6.33;;
8319;SDS011;4197;42.130;24.746;2024-02-15T04:40:46;10.03;;;6.40;;
8319;SDS011;4197;42.130;24.746;2024-02-15T04:43:14;9.60;;;6.33;;
8319;SDS011;4197;42.130;24.746;2024-02-15T04:45:44;8.93;;;5.97;;
8319;SDS011;4197;42.130;24.746;2024-02-15T04:48:13;7.00;;;6.00;;
8319;SDS011;4197;42.130;24.746;2024-02-15T04:50:41;9.03;;;6.67;;
8319;SDS011;4197;42.130;24.746;2024-02-15T04:53:10;8.37;;;6.13;;
8319;SDS011;4197;42.130;24.746;2024-02-15T04:55:38;8.17;;;6.27;;
8319;SDS011;4197;42.130;24.746;2024-02-15T04:58:07;8.17;;;6.10;;
8319;SDS011;4197;42.130;24.746;2024-02-15T05:00:37;10.63;;;7.27;;
8319;SDS011;4197;42.130;24.746;2024-02-15T05:03:07;8.17;;;6.10;;
8319;SDS011;4197;42.130;24.746;2024-02-15T05:05:36;8.07;;;5.87;;
8319;SDS011;4197;42.130;24.746;2024-02-15T05:08:06;11.63;;;6.30;;
8319;SDS011;4197;42.130;24.746;2024-02-15T05:10:36;8.50;;;5.87;;
8319;SDS011;4197;42.130;24.746;2024-02-15T05:13:05;9.47;;;6.67;;
8319;SDS011;4197;42.130;24.746;2024-02-15T05:15:34;8.20;;;5.97;;
8319;SDS011;4197;42.130;24.746;2024-02-15T05:18:03;12.57;;;6.13;;
8319;SDS011;4197;42.130;24.746;2024-02-15T05:20:36;10.23;;;6.80;;
8319;SDS011;4197;42.130;24.746;2024-02-15T05:23:05;10.03;;;6.53;;
8319;SDS011;4197;42.130;24.746;2024-02-15T05:25:33;10.57;;;6.30;;
8319;SDS011;4197;42.130;24.746;2024-02-15T05:28:02;7.80;;;6.00;;
8319;SDS011;4197;42.130;24.746;2024-02-15T05:30:32;8.17;;;5.63;;
8319;SDS011;4197;42.130;24.746;2024-02-15T05:33:01;9.93;;;6.03;;
8319;SDS011;4197;42.130;24.746;2024-02-15T05:35:30;10.90;;;6.60;;
8319;SDS011;4197;42.130;24.746;2024-02-15T05:38:00;7.90;;;6.27;;
8319;SDS011;4197;42.130;24.746;2024-02-15T05:40:31;10.40;;;6.37;;
8319;SDS011;4197;42.130;24.746;2024-02-15T05:42:59;11.80;;;6.57;;
8319;SDS011;4197;42.130;24.746;2024-02-15T05:45:29;10.47;;;6.67;;
8319;SDS011;4197;42.130;24.746;2024-02-15T05:48:04;12.20;;;7.07;;
8319;SDS011;4197;42.130;24.746;2024-02-15T05:50:39;15.20;;;6.87;;
8319;SDS011;4197;42.130;24.746;2024-02-15T05:53:09;10.87;;;6.60;;
8319;SDS011;4197;42.130;24.746;2024-02-15T05:55:38;11.20;;;6.07;;
8319;SDS011;4197;42.130;24.746;2024-02-15T05:58:10;8.07;;;6.67;;
8319;SDS011;4197;42.130;24.746;2024-02-15T06:00:40;7.63;;;5.57;;
8319;SDS011;4197;42.130;24.746;2024-02-15T06:03:11;10.87;;;6.80;;
8319;SDS011;4197;42.130;24.746;2024-02-15T06:05:39;7.20;;;6.33;;
8319;SDS011;4197;42.130;24.746;2024-02-15T06:08:09;10.63;;;6.37;;
8319;SDS011;4197;42.130;24.746;2024-02-15T06:10:38;9.57;;;7.10;;
8319;SDS011;4197;42.130;24.746;2024-02-15T06:13:07;8.67;;;5.87;;
8319;SDS011;4197;42.130;24.746;2024-02-15T06:15:36;9.40;;;6.70;;
8319;SDS011;4197;42.130;24.746;2024-02-15T06:18:05;8.33;;;6.47;;
8319;SDS011;4197;42.130;24.746;2024-02-15T06:20:36;9.80;;;6.93;;
8319;SDS011;4197;42.130;24.746;2024-02-15T06:23:06;8.87;;;6.10;;
8319;SDS011;4197;42.130;24.746;2024-02-15T06:25:36;18.20;;;6.60;;
8319;SDS011;4197;42.130;24.746;2024-02-15T06:28:05;11.03;;;6.20;;
8319;SDS011;4197;42.130;24.746;2024-02-15T06:30:46;11.47;;;5.83;;
8319;SDS011;4197;42.130;24.746;2024-02-15T06:33:37;9.17;;;6.07;;
8319;SDS011;4197;42.130;24.746;2024-02-15T06:36:24;10.20;;;5.97;;
8319;SDS011;4197;42.130;24.746;2024-02-15T06:39:10;8.43;;;6.27;;
8319;SDS011;4197;42.130;24.746;2024-02-15T06:41:59;8.50;;;6.43;;
8319;SDS011;4197;42.130;24.746;2024-02-15T06:44:28;7.47;;;6.10;;
8319;SDS011;4197;42.130;24.746;2024-02-15T06:46:57;7.97;;;6.10;;
8319;SDS011;4197;42.130;24.746;2024-02-15T06:49:26;8.37;;;6.47;;
8319;SDS011;4197;42.130;24.746;2024-02-15T06:51:55;6.87;;;5.67;;
8319;SDS011;4197;42.130;24.746;2024-02-15T06:54:25;7.83;;;6.40;;
8319;SDS011;4197;42.130;24.746;2024-02-15T06:56:54;8.90;;;6.63;;
8319;SDS011;4197;42.130;24.746;2024-02-15T06:59:25;9.20;;;6.03;;
8319;SDS011;4197;42.130;24.746;2024-02-15T07:01:53;7.40;;;6.13;;
8319;SDS011;4197;42.130;24.746;2024-02-15T07:04:22;12.17;;;6.57;;
8319;SDS011;4197;42.130;24.746;2024-02-15T07:06:52;16.77;;;6.33;;
8319;SDS011;4197;42.130;24.746;2024-02-15T07:09:22;8.07;;;6.00;;
8319;SDS011;4197;42.130;24.746;2024-02-15T07:11:51;7.23;;;6.07;;
8319;SDS011;4197;42.130;24.746;2024-02-15T07:14:21;6.87;;;6.17;;
8319;SDS011;4197;42.130;24.746;2024-02-15T07:16:51;10.60;;;6.60;;
8319;SDS011;4197;42.130;24.746;2024-02-15T07:19:23;11.67;;;6.63;;
8319;SDS011;4197;42.130;24.746;2024-02-15T07:21:54;8.27;;;6.47;;
8319;SDS011;4197;42.130;24.746;2024-02-15T07:24:24;10.50;;;6.60;;
8319;SDS011;4197;42.130;24.746;2024-02-15T07:26:54;10.17;;;6.77;;
8319;SDS011;4197;42.130;24.746;2024-02-15T07:29:23;9.70;;;6.53;;
8319;SDS011;4197;42.130;24.746;2024-02-15T07:31:54;9.80;;;6.57;;
8319;SDS011;4197;42.130;24.746;2024-02-15T07:34:22;8.13;;;6.83;;
8319;SDS011;4197;42.130;24.746;2024-02-15T07:36:53;7.43;;;5.93;;
8319;SDS011;4197;42.130;24.746;2024-02-15T07:39:21;11.20;;;6.87;;
8319;SDS011;4197;42.130;24.746;2024-02-15T07:41:52;14.03;;;6.77;;
8319;SDS011;4197;42.130;24.746;2024-02-15T07:44:21;8.50;;;6.40;;
8319;SDS011;4197;42.130;24.746;2024-02-15T07:46:50;9.33;;;6.30;;
8319;SDS011;4197;42.130;24.746;2024-02-15T07:49:20;12.47;;;7.03;;
8319;SDS011;4197;42.130;24.746;2024-02-15T07:51:49;10.97;;;6.70;;
8319;SDS011;4197;42.130;24.746;2024-02-15T07:54:20;7.73;;;6.40;;
8319;SDS011;4197;42.130;24.746;2024-02-15T07:56:49;10.23;;;6.53;;
8319;SDS011;4197;42.130;24.746;2024-02-15T07:59:18;15.23;;;6.67;;
8319;SDS011;4197;42.130;24.746;2024-02-15T08:01:47;9.10;;;6.77;;
8319;SDS011;4197;42.130;24.746;2024-02-15T08:04:17;11.00;;;7.23;;
8319;SDS011;4197;42.130;24.746;2024-02-15T08:06:48;10.27;;;6.47;;
8319;SDS011;4197;42.130;24.746;2024-02-15T08:09:19;10.87;;;7.20;;
8319;SDS011;4197;42.130;24.746;2024-02-15T08:11:50;10.87;;;7.10;;
8319;SDS011;4197;42.130;24.746;2024-02-15T08:14:19;11.93;;;7.80;;
8319;SDS011;4197;42.130;24.746;2024-02-15T08:16:47;9.77;;;7.47;;
8319;SDS011;4197;42.130;24.746;2024-02-15T08:19:15;9.67;;;6.57;;
8319;SDS011;4197;42.130;24.746;2024-02-15T08:21:46;16.27;;;7.33;;
8319;SDS011;4197;42.130;24.746;2024-02-15T08:24:17;13.97;;;8.13;;
8319;SDS011;4197;42.130;24.746;2024-02-15T08:26:45;9.83;;;6.83;;
8319;SDS011;4197;42.130;24.746;2024-02-15T08:29:14;8.47;;;7.47;;
8319;SDS011;4197;42.130;24.746;2024-02-15T08:31:42;10.87;;;7.43;;
8319;SDS011;4197;42.130;24.746;2024-02-15T08:34:10;10.37;;;8.20;;
8319;SDS011;4197;42.130;24.746;2024-02-15T08:36:41;8.50;;;7.17;;
8319;SDS011;4197;42.130;24.746;2024-02-15T08:39:11;11.30;;;7.33;;
8319;SDS011;4197;42.130;24.746;2024-02-15T08:41:39;11.37;;;6.90;;
8319;SDS011;4197;42.130;24.746;2024-02-15T08:44:08;11.27;;;7.00;;
8319;SDS011;4197;42.130;24.746;2024-02-15T08:46:42;10.50;;;7.80;;
8319;SDS011;4197;42.130;24.746;2024-02-15T08:49:10;11.37;;;6.77;;
8319;SDS011;4197;42.130;24.746;2024-02-15T08:51:40;8.30;;;7.17;;
8319;SDS011;4197;42.130;24.746;2024-02-15T08:54:09;8.80;;;6.83;;
8319;SDS011;4197;42.130;24.746;2024-02-15T08:56:39;8.13;;;6.23;;
8319;SDS011;4197;42.130;24.746;2024-02-15T08:59:07;11.57;;;7.60;;
8319;SDS011;4197;42.130;24.746;2024-02-15T09:01:35;10.77;;;6.87;;
8319;SDS011;4197;42.130;24.746;2024-02-15T09:04:06;17.73;;;12.20;;
8319;SDS011;4197;42.130;24.746;2024-02-15T09:06:34;13.67;;;8.57;;
8319;SDS011;4197;42.130;24.746;2024-02-15T09:09:03;12.40;;;7.87;;
8319;SDS011;4197;42.130;24.746;2024-02-15T09:11:33;10.27;;;6.80;;
8319;SDS011;4197;42.130;24.746;2024-02-15T09:14:02;8.47;;;6.80;;
8319;SDS011;4197;42.130;24.746;2024-02-15T09:16:31;8.63;;;5.63;;
8319;SDS011;4197;42.130;24.746;2024-02-15T09:19:00;9.57;;;6.50;;
8319;SDS011;4197;42.130;24.746;2024-02-15T09:21:29;11.13;;;6.80;;
8319;SDS011;4197;42.130;24.746;2024-02-15T09:23:57;8.97;;;6.87;;
8319;SDS011;4197;42.130;24.746;2024-02-15T09:26:25;10.90;;;6.37;;
8319;SDS011;4197;42.130;24.746;2024-02-15T09:28:56;11.53;;;7.07;;
8319;SDS011;4197;42.130;24.746;2024-02-15T09:31:24;11.07;;;6.57;;
8319;SDS011;4197;42.130;24.746;2024-02-15T09:33:53;13.00;;;6.63;;
8319;SDS011;4197;42.130;24.746;2024-02-15T09:36:22;11.83;;;6.83;;
8319;SDS011;4197;42.130;24.746;2024-02-15T09:38:50;10.27;;;7.33;;
8319;SDS011;4197;42.130;24.746;2024-02-15T09:41:19;12.37;;;6.90;;
8319;SDS011;4197;42.130;24.746;2024-02-15T09:43:48;10.40;;;7.33;;
8319;SDS011;4197;42.130;24.746;2024-02-15T09:46:17;11.00;;;6.10;;
8319;SDS011;4197;42.130;24.746;2024-02-15T09:48:47;8.10;;;6.57;;
8319;SDS011;4197;42.130;24.746;2024-02-15T09:51:25;10.90;;;7.27;;
8319;SDS011;4197;42.130;24.746;2024-02-15T09:53:55;11.47;;;7.07;;
8319;SDS011;4197;42.130;24.746;2024-02-15T09:56:26;18.50;;;6.80;;
8319;SDS011;4197;42.130;24.746;2024-02-15T09:58:56;10.63;;;7.13;;
8319;SDS011;4197;42.130;24.746;2024-02-15T10:01:30;9.90;;;6.23;;
8319;SDS011;4197;42.130;24.746;2024-02-15T10:04:00;9.47;;;6.87;;
8319;SDS011;4197;42.130;24.746;2024-02-15T10:06:33;8.80;;;6.60;;
8319;SDS011;4197;42.130;24.746;2024-02-15T10:11:55;8.23;;;5.70;;
8319;SDS011;4197;42.130;24.746;2024-02-15T10:14:25;10.27;;;7.03;;
8319;SDS011;4197;42.130;24.746;2024-02-15T10:16:56;7.87;;;6.07;;
8319;SDS011;4197;42.130;24.746;2024-02-15T10:19:33;8.60;;;6.47;;
8319;SDS011;4197;42.130;24.746;2024-02-15T10:22:05;9.50;;;6.57;;
8319;SDS011;4197;42.130;24.746;2024-02-15T10:24:34;9.23;;;6.97;;
8319;SDS011;4197;42.130;24.746;2024-02-15T10:27:06;12.40;;;6.97;;
8319;SDS011;4197;42.130;24.746;2024-02-15T10:29:34;9.97;;;6.63;;
8319;SDS011;4197;42.130;24.746;2024-02-15T10:32:05;14.83;;;7.07;;
8319;SDS011;4197;42.130;24.746;2024-02-15T10:34:43;8.70;;;5.93;;
8319;SDS011;4197;42.130;24.746;2024-02-15T10:37:13;9.60;;;5.70;;
8319;SDS011;4197;42.130;24.746;2024-02-15T10:39:43;9.27;;;6.00;;
8319;SDS011;4197;42.130;24.746;2024-02-15T10:42:12;11.70;;;7.97;;
8319;SDS011;4197;42.130;24.746;2024-02-15T10:44:42;7.43;;;5.90;;
8319;SDS011;4197;42.130;24.746;2024-02-15T10:47:11;9.87;;;5.93;;
8319;SDS011;4197;42.130;24.746;2024-02-15T10:49:40;10.43;;;5.93;;
8319;SDS011;4197;42.130;24.746;2024-02-15T10:52:13;10.33;;;6.10;;
8319;SDS011;4197;42.130;24.746;2024-02-15T10:54:46;7.80;;;5.83;;
8319;SDS011;4197;42.130;24.746;2024-02-15T10:57:20;8.83;;;6.83;;
8319;SDS011;4197;42.130;24.746;2024-02-15T10:59:54;9.70;;;5.43;;
8319;SDS011;4197;42.130;24.746;2024-02-15T11:02:30;7.40;;;5.37;;
8319;SDS011;4197;42.130;24.746;2024-02-15T11:05:02;8.30;;;5.40;;
8319;SDS011;4197;42.130;24.746;2024-02-15T11:07:37;7.10;;;5.20;;
8319;SDS011;4197;42.130;24.746;2024-02-15T11:10:07;6.83;;;4.97;;
8319;SDS011;4197;42.130;24.746;2024-02-15T11:12:38;12.97;;;5.47;;
8319;SDS011;4197;42.130;24.746;2024-02-15T11:15:08;7.97;;;5.50;;
8319;SDS011;4197;42.130;24.746;2024-02-15T11:17:46;9.23;;;5.37;;
8319;SDS011;4197;42.130;24.746;2024-02-15T11:23:25;6.03;;;4.10;;
8319;SDS011;4197;42.130;24.746;2024-02-15T11:26:03;4.97;;;4.30;;
8319;SDS011;4197;42.130;24.746;2024-02-15T11:28:38;10.77;;;6.30;;
8319;SDS011;4197;42.130;24.746;2024-02-15T11:31:10;7.27;;;5.57;;
8319;SDS011;4197;42.130;24.746;2024-02-15T11:33:42;8.00;;;5.33;;
8319;SDS011;4197;42.130;24.746;2024-02-15T11:36:12;5.83;;;5.20;;
8319;SDS011;4197;42.130;24.746;2024-02-15T11:38:43;6.43;;;5.03;;
8319;SDS011;4197;42.130;24.746;2024-02-15T11:41:13;5.03;;;4.50;;
8319;SDS011;4197;42.130;24.746;2024-02-15T11:43:50;5.13;;;4.30;;
8319;SDS011;4197;42.130;24.746;2024-02-15T11:46:24;7.73;;;4.87;;
8319;SDS011;4197;42.130;24.746;2024-02-15T11:48:59;5.47;;;4.67;;
8319;SDS011;4197;42.130;24.746;2024-02-15T11:51:30;7.43;;;4.93;;
8319;SDS011;4197;42.130;24.746;2024-02-15T11:54:05;7.47;;;4.30;;
8319;SDS011;4197;42.130;24.746;2024-02-15T11:56:51;5.37;;;4.50;;
8319;SDS011;4197;42.130;24.746;2024-02-15T11:59:38;6.90;;;4.50;;
8319;SDS011;4197;42.130;24.746;2024-02-15T12:02:20;6.10;;;4.87;;
8319;SDS011;4197;42.130;24.746;2024-02-15T12:05:07;6.83;;;5.20;;
8319;SDS011;4197;42.130;24.746;2024-02-15T12:07:53;5.70;;;4.47;;
8319;SDS011;4197;42.130;24.746;2024-02-15T12:10:41;7.77;;;4.50;;
8319;SDS011;4197;42.130;24.746;2024-02-15T12:17:02;9.43;;;6.03;;
8319;SDS011;4197;42.130;24.746;2024-02-15T12:19:50;8.47;;;6.13;;
8319;SDS011;4197;42.130;24.746;2024-02-15T12:22:24;7.73;;;4.33;;
8319;SDS011;4197;42.130;24.746;2024-02-15T12:24:55;5.60;;;4.83;;
8319;SDS011;4197;42.130;24.746;2024-02-15T12:27:26;5.87;;;4.90;;
8319;SDS011;4197;42.130;24.746;2024-02-15T12:29:57;5.33;;;4.50;;
8319;SDS011;4197;42.130;24.746;2024-02-15T12:32:26;8.07;;;5.33;;
8319;SDS011;4197;42.130;24.746;2024-02-15T12:35:09;5.73;;;4.43;;
8319;SDS011;4197;42.130;24.746;2024-02-15T12:37:43;9.43;;;4.87;;
8319;SDS011;4197;42.130;24.746;2024-02-15T12:40:12;5.57;;;3.90;;
8319;SDS011;4197;42.130;24.746;2024-02-15T12:42:44;4.63;;;3.80;;
8319;SDS011;4197;42.130;24.746;2024-02-15T12:45:16;5.43;;;4.50;;
8319;SDS011;4197;42.130;24.746;2024-02-15T12:47:49;5.27;;;4.37;;
8319;SDS011;4197;42.130;24.746;2024-02-15T12:50:20;5.70;;;4.90;;
8319;SDS011;4197;42.130;24.746;2024-02-15T12:52:52;5.90;;;4.20;;
8319;SDS011;4197;42.130;24.746;2024-02-15T12:55:22;8.07;;;4.13;;
8319;SDS011;4197;42.130;24.746;2024-02-15T12:57:52;7.97;;;4.23;;
8319;SDS011;4197;42.130;24.746;2024-02-15T13:00:24;4.63;;;3.57;;
8319;SDS011;4197;42.130;24.746;2024-02-15T13:02:55;5.00;;;4.10;;
8319;SDS011;4197;42.130;24.746;2024-02-15T13:05:24;8.67;;;3.73;;
8319;SDS011;4197;42.130;24.746;2024-02-15T13:07:55;5.67;;;3.93;;
8319;SDS011;4197;42.130;24.746;2024-02-15T13:10:25;6.60;;;3.83;;
8319;SDS011;4197;42.130;24.746;2024-02-15T13:12:53;5.83;;;5.10;;
8319;SDS011;4197;42.130;24.746;2024-02-15T13:15:24;5.60;;;4.50;;
8319;SDS011;4197;42.130;24.746;2024-02-15T13:18:00;8.07;;;4.20;;
8319;SDS011;4197;42.130;24.746;2024-02-15T13:20:32;8.07;;;4.90;;
8319;SDS011;4197;42.130;24.746;2024-02-15T13:23:04;8.93;;;5.43;;
8319;SDS011;4197;42.130;24.746;2024-02-15T13:25:36;4.97;;;4.20;;
8319;SDS011;4197;42.130;24.746;2024-02-15T13:28:07;7.27;;;5.00;;
8319;SDS011;4197;42.130;24.746;2024-02-15T13:30:37;6.30;;;4.30;;
8319;SDS011;4197;42.130;24.746;2024-02-15T13:33:05;6.83;;;4.70;;
8319;SDS011;4197;42.130;24.746;2024-02-15T13:35:34;6.27;;;4.43;;
8319;SDS011;4197;42.130;24.746;2024-02-15T13:38:05;9.23;;;4.90;;
8319;SDS011;4197;42.130;24.746;2024-02-15T13:40:35;12.53;;;5.33;;
8319;SDS011;4197;42.130;24.746;2024-02-15T13:43:03;6.80;;;5.77;;
8319;SDS011;4197;42.130;24.746;2024-02-15T13:45:32;7.47;;;5.00;;
8319;SDS011;4197;42.130;24.746;2024-02-15T13:48:06;8.27;;;4.83;;
8319;SDS011;4197;42.130;24.746;2024-02-15T13:50:36;6.83;;;4.83;;
8319;SDS011;4197;42.130;24.746;2024-02-15T13:53:08;6.80;;;4.07;;
8319;SDS011;4197;42.130;24.746;2024-02-15T13:55:37;6.43;;;4.27;;
8319;SDS011;4197;42.130;24.746;2024-02-15T13:58:06;6.63;;;4.80;;
8319;SDS011;4197;42.130;24.746;2024-02-15T14:00:40;7.65;;;5.20;;
8319;SDS011;4197;42.130;24.746;2024-02-15T14:03:10;9.07;;;4.90;;
8319;SDS011;4197;42.130;24.746;2024-02-15T14:05:42;9.13;;;4.67;;
8319;SDS011;4197;42.130;24.746;2024-02-15T14:08:14;7.13;;;4.67;;
8319;SDS011;4197;42.130;24.746;2024-02-15T14:10:42;8.77;;;4.23;;
8319;SDS011;4197;42.130;24.746;2024-02-15T14:13:14;8.30;;;4.77;;
8319;SDS011;4197;42.130;24.746;2024-02-15T14:15:42;10.20;;;5.00;;
8319;SDS011;4197;42.130;24.746;2024-02-15T14:18:11;9.65;;;5.40;;
8319;SDS011;4197;42.130;24.746;2024-02-15T14:20:42;6.80;;;4.67;;
8319;SDS011;4197;42.130;24.746;2024-02-15T14:23:10;9.53;;;4.73;;
8319;SDS011;4197;42.130;24.746;2024-02-15T14:25:43;10.18;;;4.82;;
8319;SDS011;4197;42.130;24.746;2024-02-15T14:28:12;8.77;;;6.03;;
8319;SDS011;4197;42.130;24.746;2024-02-15T14:30:42;8.13;;;4.68;;
8319;SDS011;4197;42.130;24.746;2024-02-15T14:33:28;14.97;;;4.30;;
8319;SDS011;4197;42.130;24.746;2024-02-15T14:36:00;8.48;;;6.40;;
8319;SDS011;4197;42.130;24.746;2024-02-15T14:38:30;8.15;;;5.63;;
8319;SDS011;4197;42.130;24.746;2024-02-15T14:41:03;6.30;;;4.77;;
8319;SDS011;4197;42.130;24.746;2024-02-15T14:43:34;8.77;;;4.90;;
8319;SDS011;4197;42.130;24.746;2024-02-15T14:46:03;10.27;;;5.00;;
8319;SDS011;4197;42.130;24.746;2024-02-15T14:48:34;11.17;;;5.17;;
8319;SDS011;4197;42.130;24.746;2024-02-15T14:51:06;5.40;;;3.73;;
8319;SDS011;4197;42.130;24.746;2024-02-15T14:53:37;6.53;;;4.80;;
8319;SDS011;4197;42.130;24.746;2024-02-15T14:56:09;7.13;;;4.80;;
8319;SDS011;4197;42.130;24.746;2024-02-15T14:58:37;7.13;;;5.00;;
8319;SDS011;4197;42.130;24.746;2024-02-15T15:01:07;8.13;;;4.93;;
8319;SDS011;4197;42.130;24.746;2024-02-15T15:03:36;8.17;;;4.70;;
8319;SDS011;4197;42.130;24.746;2024-02-15T15:06:06;9.30;;;5.90;;
8319;SDS011;4197;42.130;24.746;2024-02-15T15:08:53;12.20;;;8.97;;
8319;SDS011;4197;42.130;24.746;2024-02-15T15:11:43;11.13;;;5.13;;
8319;SDS011;4197;42.130;24.746;2024-02-15T15:14:29;4.53;;;3.50;;
8319;SDS011;4197;42.130;24.746;2024-02-15T15:16:58;7.37;;;6.17;;
8319;SDS011;4197;42.130;24.746;2024-02-15T15:19:29;8.30;;;5.40;;
8319;SDS011;4197;42.130;24.746;2024-02-15T15:21:58;7.17;;;4.60;;
8319;SDS011;4197;42.130;24.746;2024-02-15T15:24:26;6.27;;;5.37;;
8319;SDS011;4197;42.130;24.746;2024-02-15T15:26:57;9.60;;;4.17;;
8319;SDS011;4197;42.130;24.746;2024-02-15T15:29:26;5.70;;;4.30;;